createdAt,value
2023-04-18T00:01:40.872Z,2.20
2023-04-18T00:04:08.919Z,1.80
2023-04-18T00:06:38.439Z,2.72
2023-04-18T00:09:05.118Z,2.03
2023-04-18T00:11:31.703Z,1.95
2023-04-18T00:13:59.377Z,1.77
2023-04-18T00:16:27.292Z,1.67
2023-04-18T00:18:54.232Z,1.70
2023-04-18T00:21:23.176Z,1.65
2023-04-18T00:23:49.797Z,1.80
2023-04-18T00:26:16.319Z,1.70
2023-04-18T00:28:47.160Z,2.15
2023-04-18T00:31:13.775Z,2.08
2023-04-18T00:33:40.320Z,1.42
2023-04-18T00:36:07.051Z,2.25
2023-04-18T00:38:33.847Z,2.53
2023-04-18T00:41:00.490Z,2.63
2023-04-18T00:43:27.174Z,2.03
2023-04-18T00:45:54.025Z,1.63
2023-04-18T00:48:20.600Z,2.38
2023-04-18T00:50:47.100Z,2.47
2023-04-18T00:53:13.619Z,2.33
2023-04-18T00:55:40.597Z,1.70
2023-04-18T00:58:08.191Z,2.50
2023-04-18T01:00:34.788Z,2.20
2023-04-18T01:03:01.460Z,1.90
2023-04-18T01:05:28.252Z,2.50
2023-04-18T01:08:00.781Z,3.33
2023-04-18T01:10:27.786Z,2.92
2023-04-18T01:13:13.996Z,2.25
2023-04-18T01:15:45.093Z,1.50
2023-04-18T01:18:13.058Z,2.10
2023-04-18T01:20:41.439Z,2.55
2023-04-18T01:23:10.273Z,1.52
2023-04-18T01:25:37.262Z,1.67
2023-04-18T01:28:04.700Z,1.80
2023-04-18T01:30:31.187Z,1.92
2023-04-18T01:32:58.411Z,2.00
2023-04-18T01:35:26.912Z,2.70
2023-04-18T01:37:56.231Z,1.83
2023-04-18T01:40:24.292Z,2.00
2023-04-18T01:42:51.206Z,1.33
2023-04-18T01:45:19.337Z,1.50
2023-04-18T01:47:46.706Z,1.95
2023-04-18T01:50:13.789Z,1.67
2023-04-18T01:52:42.535Z,1.35
2023-04-18T01:55:09.537Z,2.17
2023-04-18T01:57:38.892Z,0.75
2023-04-18T02:00:06.876Z,1.40
2023-04-18T02:02:42.701Z,1.83
2023-04-18T02:05:09.501Z,2.28
2023-04-18T02:07:38.534Z,2.05
2023-04-18T02:10:05.537Z,1.38
2023-04-18T02:12:32.159Z,1.25
2023-04-18T02:14:59.566Z,1.88
2023-04-18T02:17:26.209Z,2.05
2023-04-18T02:19:54.363Z,2.30
2023-04-18T02:22:21.046Z,2.90
2023-04-18T02:24:47.564Z,1.42
2023-04-18T02:27:15.119Z,1.67
2023-04-18T02:29:41.623Z,1.00
2023-04-18T02:32:08.983Z,1.27
2023-04-18T02:34:36.474Z,1.67
2023-04-18T02:37:03.660Z,1.70
2023-04-18T02:39:31.728Z,1.25
2023-04-18T02:41:58.727Z,1.40
2023-04-18T02:44:25.517Z,1.92
2023-04-18T02:46:52.053Z,1.33
2023-04-18T02:49:18.625Z,1.70
2023-04-18T02:51:45.280Z,1.52
2023-04-18T02:54:12.061Z,1.85
2023-04-18T02:56:57.500Z,1.73
2023-04-18T02:59:46.071Z,1.42
2023-04-18T03:02:28.797Z,2.30
2023-04-18T03:05:00.581Z,2.72
2023-04-18T03:07:27.334Z,2.40
2023-04-18T03:09:54.296Z,2.33
2023-04-18T03:12:29.051Z,1.38
2023-04-18T03:14:55.680Z,1.10
2023-04-18T03:17:22.496Z,1.75
2023-04-18T03:19:49.772Z,1.92
2023-04-18T03:22:19.328Z,1.33
2023-04-18T03:24:52.760Z,1.45
2023-04-18T03:27:20.591Z,2.17
2023-04-18T03:29:47.771Z,2.53
2023-04-18T03:32:14.833Z,1.70
2023-04-18T03:34:41.554Z,1.77
2023-04-18T03:37:08.676Z,1.85
2023-04-18T03:39:40.910Z,2.47
2023-04-18T03:42:07.764Z,2.00
2023-04-18T03:44:35.258Z,1.77
2023-04-18T03:47:03.524Z,1.80
2023-04-18T03:49:31.429Z,1.33
2023-04-18T03:51:58.324Z,2.47
2023-04-18T03:54:24.851Z,1.60
2023-04-18T03:56:51.445Z,1.80
2023-04-18T03:59:21.220Z,2.35
2023-04-18T04:01:50.215Z,2.08
2023-04-18T04:04:18.197Z,1.25
2023-04-18T04:06:45.390Z,2.05
2023-04-18T04:09:12.030Z,2.42
2023-04-18T04:11:39.708Z,1.95
2023-04-18T04:14:08.746Z,1.00
2023-04-18T04:16:40.428Z,1.70
2023-04-18T04:19:07.407Z,1.50
2023-04-18T04:21:40.646Z,1.58
2023-04-18T04:24:11.072Z,1.58
2023-04-18T04:26:43.212Z,0.70
2023-04-18T04:29:15.031Z,2.00
2023-04-18T04:31:42.906Z,1.67
2023-04-18T04:34:09.549Z,2.63
2023-04-18T04:36:36.196Z,1.27
2023-04-18T04:39:05.185Z,1.58
2023-04-18T04:41:41.172Z,1.48
2023-04-18T04:44:09.414Z,2.67
2023-04-18T04:46:39.432Z,1.67
2023-04-18T04:49:12.062Z,1.27
2023-04-18T04:51:39.985Z,1.58
2023-04-18T04:54:06.568Z,1.83
2023-04-18T04:56:33.171Z,1.25
2023-04-18T04:59:00.860Z,2.03
2023-04-18T05:01:35.447Z,1.60
2023-04-18T05:04:02.354Z,1.90
2023-04-18T05:06:29.078Z,2.17
2023-04-18T05:08:57.414Z,2.40
2023-04-18T05:11:24.069Z,3.50
2023-04-18T05:13:50.643Z,2.03
2023-04-18T05:16:17.532Z,1.60
2023-04-18T05:18:44.096Z,1.77
2023-04-18T05:21:10.561Z,2.22
2023-04-18T05:23:37.277Z,1.40
2023-04-18T05:26:04.957Z,2.45
2023-04-18T05:28:31.668Z,2.42
2023-04-18T05:31:01.370Z,1.60
2023-04-18T05:33:28.997Z,1.70
2023-04-18T05:35:58.342Z,1.90
2023-04-18T05:38:24.981Z,1.58
2023-04-18T05:40:51.589Z,3.05
2023-04-18T05:43:19.405Z,2.15
2023-04-18T05:45:46.358Z,2.88
2023-04-18T05:48:13.238Z,3.03
2023-04-18T05:50:40.465Z,2.25
2023-04-18T05:53:06.985Z,2.75
2023-04-18T05:55:34.343Z,2.10
2023-04-18T05:58:01.039Z,2.25
2023-04-18T06:00:28.246Z,2.55
2023-04-18T06:02:55.225Z,2.60
2023-04-18T06:05:22.102Z,2.17
2023-04-18T06:07:48.834Z,3.22
2023-04-18T06:10:15.781Z,2.70
2023-04-18T06:12:42.424Z,2.70
2023-04-18T06:15:09.859Z,1.77
2023-04-18T06:17:36.471Z,1.92
2023-04-18T06:20:04.832Z,2.42
2023-04-18T06:22:31.488Z,2.92
2023-04-18T06:24:58.070Z,2.72
2023-04-18T06:27:31.648Z,1.67
2023-04-18T06:29:58.806Z,1.92
2023-04-18T06:32:25.616Z,2.42
2023-04-18T06:34:53.025Z,2.47
2023-04-18T06:37:19.847Z,2.38
2023-04-18T06:39:46.394Z,1.45
2023-04-18T06:42:12.964Z,2.72
2023-04-18T06:44:44.372Z,2.58
2023-04-18T06:47:11.222Z,2.83
2023-04-18T06:49:37.834Z,2.10
2023-04-18T06:52:04.485Z,1.58
2023-04-18T06:54:30.993Z,2.47
2023-04-18T06:56:57.596Z,2.17
2023-04-18T06:59:24.110Z,2.85
2023-04-18T07:01:51.037Z,2.67
2023-04-18T07:04:17.818Z,4.75
2023-04-18T07:06:44.718Z,3.28
2023-04-18T07:09:11.462Z,2.03
2023-04-18T07:11:39.102Z,3.33
2023-04-18T07:14:05.588Z,2.38
2023-04-18T07:16:32.123Z,2.78
2023-04-18T07:18:58.677Z,2.53
2023-04-18T07:21:25.573Z,3.92
2023-04-18T07:23:52.171Z,1.85
2023-04-18T07:26:18.984Z,2.90
2023-04-18T07:28:45.524Z,2.33
2023-04-18T07:31:14.280Z,1.73
2023-04-18T07:33:40.996Z,3.58
2023-04-18T07:36:07.730Z,2.83
2023-04-18T07:38:35.418Z,2.67
2023-04-18T07:41:02.511Z,1.98
2023-04-18T07:43:29.051Z,1.70
2023-04-18T07:45:55.805Z,2.50
2023-04-18T07:48:22.606Z,2.65
2023-04-18T07:50:49.419Z,2.80
2023-04-18T07:53:16.038Z,1.90
2023-04-18T07:55:43.301Z,2.83
2023-04-18T07:58:10.091Z,2.58
2023-04-18T08:00:39.081Z,1.45
2023-04-18T08:03:07.505Z,2.30
2023-04-18T08:05:34.374Z,3.08
2023-04-18T08:08:00.975Z,2.45
2023-04-18T08:10:27.646Z,3.45
2023-04-18T08:12:54.216Z,2.47
2023-04-18T08:15:20.854Z,2.97
2023-04-18T08:17:48.983Z,2.13
2023-04-18T08:20:15.739Z,2.45
2023-04-18T08:22:57.616Z,2.70
2023-04-18T08:25:29.022Z,1.85
2023-04-18T08:27:55.863Z,2.53
2023-04-18T08:30:22.460Z,2.67
2023-04-18T08:32:49.699Z,2.58
2023-04-18T08:35:16.468Z,2.78
2023-04-18T08:37:43.467Z,1.98
2023-04-18T08:40:10.235Z,2.83
2023-04-18T08:42:38.440Z,2.47
2023-04-18T08:45:06.769Z,3.03
2023-04-18T08:47:35.401Z,3.13
2023-04-18T08:50:02.138Z,2.08
2023-04-18T08:52:30.868Z,3.50
2023-04-18T08:54:57.415Z,3.17
2023-04-18T08:57:27.429Z,1.27
2023-04-18T08:59:55.326Z,2.10
2023-04-18T09:02:23.237Z,1.95
2023-04-18T09:04:52.937Z,2.42
2023-04-18T09:09:52.553Z,2.72
2023-04-18T09:12:24.043Z,1.90
2023-04-18T09:14:54.094Z,2.75
2023-04-18T09:17:34.253Z,2.70
2023-04-18T09:20:06.133Z,2.65
2023-04-18T09:22:50.422Z,3.63
2023-04-18T09:25:38.417Z,2.50
2023-04-18T09:28:29.795Z,2.38
2023-04-18T09:30:58.187Z,2.35
2023-04-18T09:33:29.581Z,2.40
2023-04-18T09:35:57.046Z,2.92
2023-04-18T09:38:40.032Z,2.38
2023-04-18T09:41:10.774Z,2.10
2023-04-18T09:43:38.720Z,2.80
2023-04-18T09:46:05.677Z,2.03
2023-04-18T09:48:32.305Z,2.30
2023-04-18T09:51:00.144Z,2.15
2023-04-18T09:53:26.919Z,2.50
2023-04-18T09:55:56.115Z,2.45
2023-04-18T09:58:25.861Z,2.38
2023-04-18T10:00:53.958Z,2.38
2023-04-18T10:03:21.355Z,2.70
2023-04-18T10:05:48.401Z,5.88
2023-04-18T10:08:16.071Z,4.18
2023-04-18T10:10:43.567Z,2.33
2023-04-18T10:13:11.900Z,2.05
2023-04-18T10:15:38.745Z,2.70
2023-04-18T10:18:14.988Z,2.45
2023-04-18T10:20:41.870Z,2.67
2023-04-18T10:23:36.459Z,2.95
2023-04-18T10:26:04.734Z,2.50
2023-04-18T10:28:59.378Z,3.15
2023-04-18T10:31:27.811Z,2.17
2023-04-18T10:36:28.677Z,2.92
2023-04-18T10:38:56.262Z,2.55
2023-04-18T10:41:26.727Z,3.40
2023-04-18T10:44:09.123Z,2.20
2023-04-18T10:46:37.433Z,2.80
2023-04-18T10:49:22.366Z,2.65
2023-04-18T10:51:52.441Z,2.65
2023-04-18T10:54:22.552Z,2.42
2023-04-18T10:56:56.840Z,2.33
2023-04-18T10:59:25.037Z,3.17
2023-04-18T11:01:57.127Z,3.03
2023-04-18T11:04:25.560Z,3.33
2023-04-18T11:06:58.381Z,2.03
2023-04-18T11:09:25.129Z,2.35
2023-04-18T11:12:09.043Z,3.03
2023-04-18T11:14:49.539Z,2.47
2023-04-18T11:17:26.446Z,2.50
2023-04-18T11:20:01.328Z,2.40
2023-04-18T11:22:28.142Z,3.08
2023-04-18T11:25:01.608Z,3.20
2023-04-18T11:27:29.543Z,3.45
2023-04-18T11:29:57.473Z,3.40
2023-04-18T11:32:24.387Z,3.30
2023-04-18T11:34:54.572Z,3.55
2023-04-18T11:37:21.727Z,3.47
2023-04-18T11:39:48.400Z,2.90
2023-04-18T11:42:15.009Z,3.35
2023-04-18T11:44:45.764Z,3.47
2023-04-18T11:47:28.953Z,2.65
2023-04-18T11:50:03.308Z,3.40
2023-04-18T11:52:31.358Z,3.47
2023-04-18T11:55:17.286Z,3.15
2023-04-18T11:57:55.926Z,3.60
2023-04-18T12:00:39.281Z,2.75
2023-04-18T12:03:13.308Z,3.20
2023-04-18T12:05:40.944Z,3.13
2023-04-18T12:08:09.807Z,3.08
2023-04-18T12:10:36.535Z,3.72
2023-04-18T12:13:07.654Z,3.17
2023-04-18T12:15:38.659Z,3.67
2023-04-18T12:18:08.130Z,3.45
2023-04-18T12:20:36.814Z,3.10
2023-04-18T12:23:03.784Z,3.38
2023-04-18T12:25:30.686Z,2.75
2023-04-18T12:28:17.519Z,3.28
2023-04-18T12:30:44.080Z,2.92
2023-04-18T12:33:11.268Z,3.17
2023-04-18T12:35:37.875Z,2.80
2023-04-18T12:38:04.997Z,2.90
2023-04-18T12:40:31.748Z,2.47
2023-04-18T12:42:58.441Z,3.78
2023-04-18T12:45:25.323Z,2.05
2023-04-18T12:47:52.788Z,2.70
2023-04-18T12:50:25.169Z,3.15
2023-04-18T12:52:53.052Z,2.53
2023-04-18T12:55:20.418Z,3.72
2023-04-18T12:57:47.017Z,2.92
2023-04-18T13:00:14.129Z,3.08
2023-04-18T13:02:44.142Z,2.83
2023-04-18T13:05:12.363Z,2.55
2023-04-18T13:07:40.555Z,2.72
2023-04-18T13:10:12.440Z,3.05
2023-04-18T13:12:40.609Z,3.17
2023-04-18T13:15:08.679Z,2.75
2023-04-18T13:17:38.622Z,2.80
2023-04-18T13:20:07.093Z,2.83
2023-04-18T13:22:33.961Z,2.10
2023-04-18T13:25:00.500Z,2.83
2023-04-18T13:27:27.133Z,2.60
2023-04-18T13:29:53.818Z,2.28
2023-04-18T13:32:20.447Z,2.10
2023-04-18T13:34:48.206Z,2.50
2023-04-18T13:37:15.120Z,2.42
2023-04-18T13:39:41.900Z,3.30
2023-04-18T13:42:08.670Z,1.92
2023-04-18T13:44:36.493Z,2.95
2023-04-18T13:47:04.902Z,2.03
2023-04-18T13:49:35.348Z,2.67
2023-04-18T13:52:02.581Z,2.20
2023-04-18T13:54:31.446Z,2.42
2023-04-18T13:56:59.530Z,2.97
2023-04-18T13:59:26.898Z,2.05
2023-04-18T14:01:54.304Z,2.63
2023-04-18T14:04:22.316Z,2.38
2023-04-18T14:06:49.568Z,3.03
2023-04-18T14:09:16.827Z,2.63
2023-04-18T14:11:44.186Z,2.55
2023-04-18T14:14:10.839Z,2.08
2023-04-18T14:16:37.386Z,2.50
2023-04-18T14:19:03.893Z,2.50
2023-04-18T14:21:31.201Z,3.08
2023-04-18T14:23:57.783Z,2.72
2023-04-18T14:26:24.602Z,1.98
2023-04-18T14:28:51.299Z,2.22
2023-04-18T14:31:17.819Z,3.20
2023-04-18T14:33:44.724Z,2.30
2023-04-18T14:36:11.357Z,2.17
2023-04-18T14:38:37.951Z,2.45
2023-04-18T14:41:05.590Z,2.45
2023-04-18T14:43:32.380Z,3.25
2023-04-18T14:45:59.779Z,2.60
2023-04-18T14:48:27.376Z,2.63
2023-04-18T14:51:02.382Z,2.22
2023-04-18T14:53:29.332Z,2.17
2023-04-18T14:55:56.304Z,1.70
2023-04-18T14:58:22.828Z,1.92
2023-04-18T15:00:49.408Z,2.22
2023-04-18T15:03:18.841Z,2.25
2023-04-18T15:05:49.135Z,2.35
2023-04-18T15:08:16.197Z,2.95
2023-04-18T15:10:43.086Z,2.20
2023-04-18T15:13:10.962Z,2.92
2023-04-18T15:15:39.614Z,2.58
2023-04-18T15:18:07.281Z,1.83
2023-04-18T15:20:35.977Z,2.78
2023-04-18T15:23:02.981Z,2.70
2023-04-18T15:25:30.538Z,2.05
2023-04-18T15:27:58.310Z,2.15
2023-04-18T15:30:25.373Z,2.75
2023-04-18T15:32:52.205Z,2.05
2023-04-18T15:35:18.914Z,2.42
2023-04-18T15:37:45.662Z,1.77
2023-04-18T15:40:16.072Z,2.35
2023-04-18T15:42:43.609Z,2.28
2023-04-18T15:45:11.529Z,1.77
2023-04-18T15:47:38.821Z,1.67
2023-04-18T15:50:06.137Z,1.50
2023-04-18T15:52:32.730Z,1.70
2023-04-18T15:55:00.257Z,1.50
2023-04-18T15:57:29.341Z,1.90
2023-04-18T15:59:56.223Z,1.50
2023-04-18T16:02:22.853Z,1.17
2023-04-18T16:04:49.587Z,1.83
2023-04-18T16:07:16.618Z,1.10
2023-04-18T16:09:43.142Z,1.65
2023-04-18T16:12:09.723Z,1.48
2023-04-18T16:14:36.241Z,1.70
2023-04-18T16:17:03.064Z,1.10
2023-04-18T16:19:29.658Z,1.70
2023-04-18T16:21:56.290Z,1.20
2023-04-18T16:24:22.853Z,1.27
2023-04-18T16:26:49.534Z,1.52
2023-04-18T16:29:16.012Z,1.33
2023-04-18T16:31:43.115Z,0.85
2023-04-18T16:34:09.822Z,0.80
2023-04-18T16:36:36.373Z,0.90
2023-04-18T16:39:04.536Z,0.85
2023-04-18T16:41:31.166Z,1.00
2023-04-18T16:43:58.178Z,1.10
2023-04-18T16:46:25.312Z,0.80
2023-04-18T16:48:52.612Z,0.90
2023-04-18T16:51:19.264Z,0.88
2023-04-18T16:53:46.840Z,0.88
2023-04-18T16:56:13.432Z,0.68
2023-04-18T16:58:40.800Z,1.33
2023-04-18T17:01:08.175Z,0.82
2023-04-18T17:03:34.862Z,1.42
2023-04-18T17:06:01.664Z,1.13
2023-04-18T17:08:32.926Z,0.80
2023-04-18T17:10:59.622Z,1.00
2023-04-18T17:13:27.252Z,0.80
2023-04-18T17:15:54.146Z,1.17
2023-04-18T17:18:20.740Z,1.20
2023-04-18T17:20:47.575Z,1.17
2023-04-18T17:23:14.141Z,1.35
2023-04-18T17:25:40.721Z,1.08
2023-04-18T17:28:07.265Z,1.00
2023-04-18T17:30:33.837Z,1.00
2023-04-18T17:33:00.710Z,1.10
2023-04-18T17:35:27.294Z,1.00
2023-04-18T17:37:53.791Z,1.42
2023-04-18T17:40:20.392Z,0.73
2023-04-18T17:42:46.966Z,0.80
2023-04-18T17:45:13.509Z,1.10
2023-04-18T17:47:40.745Z,1.50
2023-04-18T17:50:07.981Z,1.73
2023-04-18T17:52:34.487Z,1.25
2023-04-18T17:55:01.565Z,1.17
2023-04-18T17:57:30.395Z,1.13
2023-04-18T17:59:56.996Z,0.93
2023-04-18T18:02:23.862Z,0.90
2023-04-18T18:04:51.435Z,1.10
2023-04-18T18:07:18.321Z,0.88
2023-04-18T18:09:45.601Z,1.25
2023-04-18T18:12:12.319Z,1.02
2023-04-18T18:14:40.445Z,1.52
2023-04-18T18:17:07.036Z,0.88
2023-04-18T18:19:37.489Z,1.42
2023-04-18T18:22:04.169Z,0.90
2023-04-18T18:24:30.819Z,1.13
2023-04-18T18:26:58.842Z,1.27
2023-04-18T18:29:25.487Z,0.98
2023-04-18T18:31:52.098Z,1.00
2023-04-18T18:34:19.863Z,1.08
2023-04-18T18:36:46.339Z,1.00
2023-04-18T18:39:14.591Z,0.95
2023-04-18T18:41:41.381Z,0.95
2023-04-18T18:44:08.047Z,0.82
2023-04-18T18:46:35.338Z,1.00
2023-04-18T18:49:01.891Z,1.08
2023-04-18T18:51:29.128Z,1.13
2023-04-18T18:53:57.056Z,0.98
2023-04-18T18:56:23.607Z,1.20
2023-04-18T18:58:50.208Z,0.90
2023-04-18T19:01:16.851Z,1.20
2023-04-18T19:03:43.624Z,1.08
2023-04-18T19:06:10.271Z,0.82
2023-04-18T19:08:36.764Z,1.10
2023-04-18T19:11:03.824Z,1.25
2023-04-18T19:13:30.469Z,1.17
2023-04-18T19:15:57.190Z,0.75
2023-04-18T19:18:23.981Z,1.33
2023-04-18T19:20:50.578Z,0.90
2023-04-18T19:23:17.596Z,0.82
2023-04-18T19:25:44.885Z,1.17
2023-04-18T19:28:12.755Z,1.25
2023-04-18T19:30:39.327Z,1.55
2023-04-18T19:33:05.950Z,1.20
2023-04-18T19:35:32.559Z,1.00
2023-04-18T19:38:01.616Z,1.08
2023-04-18T19:40:28.879Z,1.20
2023-04-18T19:42:55.478Z,1.35
2023-04-18T19:45:22.032Z,1.25
2023-04-18T19:47:48.703Z,1.17
2023-04-18T19:50:15.338Z,1.08
2023-04-18T19:52:41.954Z,1.02
2023-04-18T19:55:08.963Z,0.98
2023-04-18T19:57:39.567Z,1.33
2023-04-18T20:00:07.702Z,0.77
2023-04-18T20:02:40.367Z,0.90
2023-04-18T20:05:08.432Z,0.75
2023-04-18T20:07:35.882Z,1.30
2023-04-18T20:10:03.106Z,1.27
2023-04-18T20:12:29.926Z,1.13
2023-04-18T20:14:58.501Z,1.50
2023-04-18T20:17:30.163Z,1.10
2023-04-18T20:19:57.108Z,2.30
2023-04-18T20:22:26.902Z,1.10
2023-04-18T20:24:57.006Z,1.35
2023-04-18T20:27:23.761Z,1.15
2023-04-18T20:29:50.283Z,1.40
2023-04-18T20:32:16.898Z,1.17
2023-04-18T20:34:43.522Z,1.35
2023-04-18T20:37:10.157Z,0.73
2023-04-18T20:39:38.140Z,1.25
2023-04-18T20:42:04.926Z,1.02
2023-04-18T20:44:34.246Z,0.82
2023-04-18T20:47:01.116Z,2.03
2023-04-18T20:49:29.423Z,0.63
2023-04-18T20:51:56.032Z,1.02
2023-04-18T20:54:22.823Z,1.15
2023-04-18T20:56:49.461Z,1.65
2023-04-18T20:59:15.979Z,1.80
2023-04-18T21:01:42.598Z,1.10
2023-04-18T21:04:09.405Z,1.67
2023-04-18T21:06:36.709Z,1.30
2023-04-18T21:09:03.781Z,1.23
2023-04-18T21:11:30.344Z,1.58
2023-04-18T21:13:56.815Z,0.95
2023-04-18T21:16:24.107Z,1.50
2023-04-18T21:18:50.705Z,1.50
2023-04-18T21:21:17.667Z,1.08
2023-04-18T21:23:44.412Z,1.25
2023-04-18T21:26:12.593Z,0.93
2023-04-18T21:28:56.062Z,1.08
2023-04-18T21:31:23.169Z,1.95
2023-04-18T21:33:54.488Z,1.02
2023-04-18T21:36:21.402Z,1.67
2023-04-18T21:38:47.933Z,0.85
2023-04-18T21:41:16.748Z,1.67
2023-04-18T21:43:43.811Z,1.33
2023-04-18T21:46:13.967Z,0.88
2023-04-18T21:48:41.736Z,1.58
2023-04-18T21:51:09.362Z,1.25
2023-04-18T21:53:37.495Z,1.02
2023-04-18T21:56:04.329Z,1.63
2023-04-18T21:58:30.827Z,2.13
2023-04-18T22:00:57.455Z,1.27
2023-04-18T22:03:26.339Z,1.65
2023-04-18T22:05:53.235Z,1.42
2023-04-18T22:08:20.248Z,1.70
2023-04-18T22:10:49.640Z,1.30
2023-04-18T22:13:16.604Z,1.83
2023-04-18T22:15:43.148Z,1.50
2023-04-18T22:18:09.713Z,1.70
2023-04-18T22:20:37.282Z,1.15
2023-04-18T22:23:04.312Z,1.70
2023-04-18T22:25:30.781Z,0.75
2023-04-18T22:27:57.313Z,1.52
2023-04-18T22:30:23.853Z,1.52
2023-04-18T22:32:50.436Z,0.98
2023-04-18T22:35:17.244Z,1.05
2023-04-18T22:37:43.787Z,1.10
2023-04-18T22:40:11.280Z,1.20
2023-04-18T22:42:39.360Z,1.33
2023-04-18T22:45:06.864Z,0.73
2023-04-18T22:47:33.647Z,1.15
2023-04-18T22:50:00.635Z,1.15
2023-04-18T22:52:27.852Z,1.30
2023-04-18T22:54:54.737Z,1.65
2023-04-18T22:57:21.694Z,1.15
2023-04-18T22:59:48.172Z,1.08
2023-04-18T23:02:14.858Z,1.08
2023-04-18T23:04:42.283Z,0.85
2023-04-18T23:07:11.755Z,1.00
2023-04-18T23:09:38.316Z,1.25
2023-04-18T23:12:05.185Z,1.00
2023-04-18T23:14:32.084Z,0.70
2023-04-18T23:17:01.529Z,0.80
2023-04-18T23:19:28.134Z,1.38
2023-04-18T23:21:54.670Z,0.70
2023-04-18T23:24:23.061Z,1.02
2023-04-18T23:26:49.571Z,1.15
2023-04-18T23:29:16.092Z,1.02
2023-04-18T23:31:42.715Z,1.08
2023-04-18T23:34:10.181Z,0.88
2023-04-18T23:36:37.236Z,1.52
2023-04-18T23:39:04.119Z,1.38
2023-04-18T23:41:30.690Z,1.00
2023-04-18T23:43:57.260Z,0.93
2023-04-18T23:46:23.757Z,0.90
2023-04-18T23:48:50.328Z,1.77
2023-04-18T23:51:16.858Z,0.93
2023-04-18T23:53:43.388Z,0.68
2023-04-18T23:56:09.976Z,1.13
2023-04-18T23:58:36.478Z,0.70
